AirNav   Air Wisconsin Up To $57,000 Bonus
 
 1844 users online  

CYQG Windsor Airport
Windsor, Ontario, Canada

GOING TO WINDSOR?


FAA INFORMATION EFFECTIVE 04 NOVEMBER 2021

The information below comes from the U.S. Federal Aviation Administration (FAA). The FAA is not the official source of data for facilities located outside the United States, and THESE RECORDS ARE LIKELY NOT COMPLETE OR CORRECT.

Location

FAA Identifier: CYQG
Lat/Long: 42-16-33.1111N 082-57-27.5347W
42-16.551852N 082-57.458912W
42.2758642,-82.9576485
(estimated)
Elevation: 622 ft. / 190 m (estimated)
Variation: 07W ()
Time zone: UTC -4 (UTC -5 during Standard Time)
Zip code: 48243

Airport Operations

Airport use: Open to the public
Activation date: 03/2005
Control tower: no
ARTCC: CLEVELAND CENTER
FSS: LONDON FIC FLIGHT SERVICE STATION
Attendance: 
Segmented circle: no

Airport Communications

WX ASOS at DET (8 nm N): PHONE 313-371-9696
WX AWOS-3 at ONZ (14 nm SW): 119.675 (734-692-9686)
WX ASOS at DTW (18 nm W): PHONE 734-955-5015
WX AWOS-3 at VLL (19 nm NW): 119.475 (248-288-4649)

Nearby radio navigation aids

VOR radial/distance  VOR name  Freq  Var
DXOr084/18.6DETROIT VOR/DME113.4006W
CRLr061/26.1CARLETON VOR/DME115.7003W
SVMr109/29.3SALEM VORTAC114.3003W

 
NDB name  Hdg/Dist  Freq  Var  ID
GROSSE ILE047/13.641907WRYS .-. -.-- ...

Airport Services

Runway Information

Runway 7/25

Dimensions: 9000 x 200 ft. / 2743 x 61 m
Surface: asphalt
RUNWAY 7  RUNWAY 25
Latitude: 42-16.404018N42-17.086803N
Longitude: 082-58.209487W082-56.438652W
Elevation: 622.0 ft.608.0 ft.
Traffic pattern: leftleft
Runway heading: 070 magnetic, 063 true250 magnetic, 243 true
Displaced threshold: 901 ft.1143 ft.
Touchdown point: yes, no lightsyes, no lights

Runway 12/30

Dimensions: 5150 x 150 ft. / 1570 x 46 m
Surface: asphalt
RUNWAY 12  RUNWAY 30
Latitude: 42-16.396830N42-16.030400N
Longitude: 082-58.209295W082-57.179820W
Elevation: 622.0 ft.619.0 ft.
Traffic pattern: leftleft
Runway heading: 123 magnetic, 116 true303 magnetic, 296 true
Displaced threshold: 570 ft.321 ft.
Touchdown point: yes, no lightsyes, no lights

Airport Ownership and Management from official FAA records

Ownership: Publicly-owned

Additional Remarks

FOR CD CTC DETROIT APCH AT 734-955-1404.

Instrument Procedures

There are no published instrument procedures at CYQG.

Some nearby airports with instrument procedures:

KDET - Coleman A Young Municipal Airport (8 nm N)
KONZ - Grosse Ile Municipal Airport (14 nm SW)
KDTW - Detroit Metro Wayne County Airport (18 nm W)
KVLL - Oakland/Troy Airport (19 nm NW)
KMTC - Selfridge Air National Guard Base (21 nm N)
 
Loc | Ops | Rwys | IFR | FBO | Links
Com | Nav | Svcs | Stats | Notes
Aerial photo
No photo
 
Airport distance calculator
Flying to Windsor Airport? Find the distance to fly.

From to CYQG

Sunrise and sunset
Times for 29-Nov-2021
 Local
(UTC-5)
 Zulu
(UTC)
Morning civil twilight07:0912:09
Sunrise07:4012:40
Sunset17:0022:00
Evening civil twilight17:3222:32

Current date and time
Zulu (UTC)  29-Nov-2021 17:13:12
Local (UTC-5)  29-Nov-2021 12:13:12
 
METAR
CYQG 291600Z AUTO 29004KT 9SM CLR 02/M04 A3009 RMK SLP199
KDET 
8nm N 
291653Z 30006KT 10SM SCT046 03/M04 A3007 RMK AO2 SLP187 T00331044
KONZ 
14nm SW 
291655Z AUTO 24006KT 10SM BKN046 BKN110 02/M05 A3008 RMK AO2 T00201047
CXHA 
15nm S 
291600Z AUTO 31003KT 01/M04 RMK AO1 SOG 02 0003 SLP201 T00101035
KDTW 
17nm W 
291653Z 22004KT 10SM FEW030 BKN048 BKN220 02/M04 A3008 RMK AO2 SLP191 T00171039
KVLL 
19nm NW 
291655Z AUTO 22004KT 10SM BKN046 02/M03 A3007 RMK AO2 T00221035
TAF
CYQG 291138Z 2912/3012 30008KT P6SM SCT020 BECMG 2914/2916 26008KT FM291800 22008KT P6SM SCT030 BKN160 FM292200 22008KT P6SM OVC080 FM300300 22008KT 11/2SM -SN BKN015 OVC040 FM300900 25010KT P6SM FEW015 BKN025 RMK FCST BASED ON AUTO OBS. NXT FCST BY 291800Z
KDET 
8nm N 
291127Z 2912/3012 27007KT P6SM FEW050 SCT250 FM291700 25006KT P6SM SCT120 BKN150 OVC250 FM300200 20008KT 2SM -SN BKN018 OVC035 TEMPO 3003/3006 1SM -SN OVC009 FM300800 23006KT P6SM BKN022 OVC040
KDTW 
17nm W 
291506Z 2915/3018 27006KT P6SM SCT045 BKN250 FM291700 25006KT P6SM SCT120 BKN150 OVC250 FM300200 20008KT 2SM -SN BKN018 OVC035 TEMPO 3003/3006 1SM -SN OVC009 FM300800 23006KT P6SM BKN022 OVC040 FM301300 27006KT P6SM SCT015
NOTAMs
Click for the latest NOTAMs
NOTAMs are issued by the DoD/FAA and will open in a separate window not controlled by AirNav.

 

 
 

FBO, Fuel Providers, and Aircraft Ground Support

  
 Business Name 
 
 Contact 
 
 Services / Description 
 
Fuel Prices
 
Comments
  
Gateway Aviation Windsor 519-971-1462
no information available

If you are affiliated with Gateway Aviation Windsor and would like to show here your services, contact info, web link, logo, and more, click here
100LL Jet A
FS $8.06 $6.02 
 Updated 19-Oct-2021
 
   write
FS=Full service
Update Fuel Prices
 

Would you like to see your business listed on this page?

 If your business provides an interesting product or service to pilots, flight crews, aircraft, or users of the Windsor Airport, you should consider listing it here.  To start the listing process, click on the button below
 
Add a business
 

Other Pages about Windsor Airport

Update a link
 
Copyright © AirNav, LLC. All rights reserved. Privacy Policy  Contact